Time;durP1;ratioP1;P1;durP2;ratioP2;P2;SDS_P1;SDS_P2;PMS_P1;PMS_P2;Temp;Humidity;BMP_temperature;BMP_pressure;BME280_temperature;BME280_humidity;BME280_pressure;Samples;Min_cycle;Max_cycle;Signal;HPM_P1;HPM_P2
2023/05/06 00:01:02;;;;;;;11.20;2.60;;;;;;;11.62;60.36;100466.27;106487;1276;22782;-59
2023/05/06 00:03:33;;;;;;;13.20;2.80;;;;;;;11.60;60.52;100468.31;106585;1261;22529;-61
2023/05/06 00:06:05;;;;;;;13.60;2.70;;;;;;;11.57;60.61;100466.02;106631;1276;22612;-61
2023/05/06 00:08:36;;;;;;;10.80;2.90;;;;;;;11.54;60.71;100459.04;106699;1273;24378;-59
2023/05/06 00:11:08;;;;;;;15.50;2.90;;;;;;;11.50;60.86;100458.21;106650;1270;22587;-61
2023/05/06 00:13:38;;;;;;;10.20;2.40;;;;;;;11.47;60.98;100453.12;106603;1260;24222;-61
2023/05/06 00:16:09;;;;;;;12.30;2.30;;;;;;;11.44;61.12;100454.55;106548;1276;25428;-62
2023/05/06 00:18:41;;;;;;;10.50;2.20;;;;;;;11.41;61.12;100449.50;106615;1270;25332;-61
2023/05/06 00:21:11;;;;;;;8.20;2.10;;;;;;;11.38;61.37;100443.40;110344;1260;22273;-61
2023/05/06 00:23:42;;;;;;;9.70;3.40;;;;;;;11.37;61.19;100443.61;110379;1260;22218;-62
2023/05/06 00:26:13;;;;;;;13.00;3.70;;;;;;;11.36;61.34;100438.02;110328;1269;22218;-61
2023/05/06 00:28:44;;;;;;;12.40;2.10;;;;;;;11.35;61.47;100430.80;108056;1268;22523;-61
2023/05/06 00:31:14;;;;;;;14.30;2.50;;;;;;;11.35;61.62;100427.74;106537;1267;22520;-61
2023/05/06 00:33:45;;;;;;;11.30;2.40;;;;;;;11.36;61.60;100427.21;106553;1263;24737;-61
2023/05/06 00:36:16;;;;;;;9.90;2.40;;;;;;;11.34;61.69;100420.77;106638;1269;23894;-62
2023/05/06 00:38:47;;;;;;;12.60;2.20;;;;;;;11.31;61.77;100422.80;106581;1276;23159;-62
2023/05/06 00:41:18;;;;;;;8.50;2.30;;;;;;;11.30;61.82;100427.80;106523;1270;22550;-62
2023/05/06 00:43:49;;;;;;;11.40;3.10;;;;;;;11.29;61.90;100421.60;106615;1270;22694;-60
2023/05/06 00:46:20;;;;;;;12.70;2.90;;;;;;;11.29;61.97;100423.63;106664;1276;25917;-61
2023/05/06 00:48:52;;;;;;;13.70;2.60;;;;;;;11.29;62.00;100426.38;106661;1276;22576;-61
2023/05/06 00:51:23;;;;;;;12.60;2.30;;;;;;;11.29;62.03;100426.48;106637;1276;22524;-61
2023/05/06 00:53:54;;;;;;;10.30;2.70;;;;;;;11.29;62.01;100425.30;106630;1264;25397;-61
2023/05/06 00:56:25;;;;;;;11.70;2.80;;;;;;;11.29;62.10;100426.38;106652;1269;22573;-62
2023/05/06 00:58:57;;;;;;;10.40;2.50;;;;;;;11.29;62.12;100426.48;106746;1260;25354;-61
2023/05/06 01:01:30;;;;;;;9.90;2.60;;;;;;;11.29;62.27;100427.54;110367;1272;22250;-61
2023/05/06 01:04:01;;;;;;;12.20;2.70;;;;;;;11.28;62.36;100423.80;110385;1270;22176;-62
2023/05/06 01:06:40;;;;;;;11.00;2.50;;;;;;;11.26;62.34;100421.93;110355;1269;22870;-61
2023/05/06 01:09:19;;;;;;;11.10;2.40;;;;;;;11.26;62.42;100419.54;110400;1264;22911;-62
2023/05/06 01:11:53;;;;;;;10.90;2.60;;;;;;;11.25;62.48;100418.77;110347;1270;22413;-61
2023/05/06 01:14:36;;;;;;;7.20;2.10;;;;;;;11.25;62.49;100416.17;110384;1270;22353;-62
2023/05/06 01:17:11;;;;;;;12.90;2.60;;;;;;;11.24;62.55;100418.91;110211;1270;22224;-62
2023/05/06 01:19:45;;;;;;;9.60;2.20;;;;;;;11.24;62.79;100421.80;110313;1260;22361;-62
2023/05/06 01:22:18;;;;;;;12.90;2.30;;;;;;;11.23;62.88;100425.69;110354;1270;22375;-62
2023/05/06 01:24:49;;;;;;;13.30;2.70;;;;;;;11.23;62.86;100431.69;110382;1265;22259;-61
2023/05/06 01:27:19;;;;;;;14.30;2.40;;;;;;;11.23;62.84;100439.20;110411;1260;22156;-62
2023/05/06 01:29:51;;;;;;;12.10;3.10;;;;;;;11.22;62.83;100439.95;110391;1260;22192;-61
2023/05/06 01:32:34;;;;;;;11.60;2.70;;;;;;;11.22;63.03;100436.99;110411;1272;22305;-62
2023/05/06 01:35:12;;;;;;;11.30;2.30;;;;;;;11.21;63.07;100433.88;110281;1269;22223;-61
2023/05/06 01:37:52;;;;;;;11.90;2.70;;;;;;;11.22;63.17;100435.01;110409;1268;22392;-61
2023/05/06 01:40:29;;;;;;;13.30;2.60;;;;;;;11.22;63.36;100431.88;110418;1276;22511;-61
2023/05/06 01:43:02;;;;;;;20.00;2.40;;;;;;;11.22;63.22;100428.77;110368;1269;22253;-61
2023/05/06 01:45:36;;;;;;;7.50;2.10;;;;;;;11.23;63.30;100433.66;110400;1268;23389;-61
2023/05/06 01:48:07;;;;;;;10.70;2.40;;;;;;;11.23;63.38;100429.66;107797;1276;22539;-61
2023/05/06 01:50:39;;;;;;;11.70;2.70;;;;;;;11.24;63.29;100424.59;110378;1269;22365;-63
2023/05/06 01:53:09;;;;;;;9.90;2.30;;;;;;;11.26;63.32;100426.97;110383;1270;22178;-64
2023/05/06 01:55:40;;;;;;;7.40;1.90;;;;;;;11.26;63.37;100419.45;110388;1268;22474;-62
2023/05/06 01:58:11;;;;;;;13.80;3.30;;;;;;;11.24;63.49;100414.59;110411;1269;22315;-62
2023/05/06 02:00:42;;;;;;;11.70;2.80;;;;;;;11.25;63.48;100405.30;110378;1261;22175;-61
2023/05/06 02:03:13;;;;;;;16.20;4.30;;;;;;;11.25;63.46;100404.39;110381;1270;22150;-61
2023/05/06 02:05:47;;;;;;;10.40;3.00;;;;;;;11.25;63.58;100404.44;110382;1269;22287;-62
2023/05/06 02:08:18;;;;;;;15.10;3.30;;;;;;;11.23;63.74;100401.11;110410;1269;22153;-62
2023/05/06 02:10:49;;;;;;;10.90;2.60;;;;;;;11.22;63.71;100394.77;110406;1268;22465;-61
2023/05/06 02:13:21;;;;;;;13.50;2.40;;;;;;;11.22;63.54;100396.92;110440;1274;22161;-61
2023/05/06 02:15:55;;;;;;;14.20;2.80;;;;;;;11.24;63.77;100390.48;110401;1264;22249;-62
2023/05/06 02:18:25;;;;;;;10.10;2.60;;;;;;;11.24;63.65;100393.95;110361;1269;23457;-62
2023/05/06 02:20:56;;;;;;;20.60;3.50;;;;;;;11.24;63.65;100392.11;110396;1261;22190;-61
2023/05/06 02:23:27;;;;;;;10.70;2.70;;;;;;;11.22;63.73;100392.09;110394;1260;22177;-61
2023/05/06 02:25:58;;;;;;;10.40;2.40;;;;;;;11.22;63.81;100393.62;110437;1260;22230;-61
2023/05/06 02:28:29;;;;;;;14.70;2.40;;;;;;;11.22;63.74;100391.98;110427;1268;22212;-62
2023/05/06 02:30:59;;;;;;;11.00;2.80;;;;;;;11.21;63.96;100387.14;110388;1270;22213;-62
2023/05/06 02:33:30;;;;;;;11.80;2.60;;;;;;;11.22;63.95;100384.14;110347;1264;22484;-61
2023/05/06 02:36:01;;;;;;;14.60;2.50;;;;;;;11.21;63.86;100385.92;110412;1269;22238;-61
2023/05/06 02:38:33;;;;;;;11.20;2.10;;;;;;;11.21;63.92;100387.73;110398;1261;23129;-62
2023/05/06 02:41:03;;;;;;;12.00;2.40;;;;;;;11.17;64.02;100386.46;110396;1268;23282;-61
2023/05/06 02:43:34;;;;;;;11.30;2.30;;;;;;;11.14;64.11;100390.52;110449;1269;22227;-63
2023/05/06 02:46:05;;;;;;;12.40;2.50;;;;;;;11.13;64.26;100396.49;110428;1275;22230;-62
2023/05/06 02:48:36;;;;;;;9.90;2.60;;;;;;;11.12;64.39;100393.71;110362;1270;22166;-62
2023/05/06 02:51:08;;;;;;;12.50;2.60;;;;;;;11.11;64.33;100390.47;110370;1264;22152;-61
2023/05/06 02:53:39;;;;;;;10.40;2.60;;;;;;;11.13;64.29;100391.96;110408;1269;22272;-62
2023/05/06 02:56:10;;;;;;;7.40;2.20;;;;;;;11.14;64.39;100387.83;110385;1270;22235;-62
2023/05/06 02:58:41;;;;;;;9.60;2.50;;;;;;;11.14;64.36;100381.98;110410;1268;22382;-63
2023/05/06 03:01:11;;;;;;;8.30;2.10;;;;;;;11.12;64.50;100374.88;110435;1276;23071;-62
2023/05/06 03:03:42;;;;;;;10.80;2.50;;;;;;;11.12;64.44;100380.83;107836;1264;26549;-61
2023/05/06 03:06:13;;;;;;;9.50;2.60;;;;;;;11.13;64.51;100380.33;106438;1276;22729;-61
2023/05/06 03:08:44;;;;;;;9.10;2.40;;;;;;;11.14;64.56;100380.85;106445;1261;22533;-61
2023/05/06 03:11:15;;;;;;;9.90;2.30;;;;;;;11.12;64.55;100380.86;106464;1270;22521;-62
2023/05/06 03:13:45;;;;;;;8.40;2.20;;;;;;;11.11;64.77;100383.80;106535;1268;22524;-62
2023/05/06 03:16:16;;;;;;;10.90;2.30;;;;;;;11.08;64.71;100385.86;106591;1276;25310;-61
2023/05/06 03:18:47;;;;;;;9.30;2.60;;;;;;;11.06;64.70;100382.28;106386;1261;22524;-61
2023/05/06 03:21:18;;;;;;;20.10;2.50;;;;;;;11.05;64.84;100385.16;106461;1270;24196;-62
2023/05/06 03:23:49;;;;;;;16.20;3.60;;;;;;;11.03;64.83;100396.15;106443;1276;25976;-61
2023/05/06 03:26:20;;;;;;;14.80;2.60;;;;;;;11.01;64.86;100401.08;106436;1270;22517;-61
2023/05/06 03:28:51;;;;;;;8.20;2.20;;;;;;;10.99;64.95;100408.19;106504;1268;22732;-61
2023/05/06 03:31:21;;;;;;;12.40;2.80;;;;;;;10.98;65.06;100415.27;106432;1276;25469;-62
2023/05/06 03:33:53;;;;;;;11.90;2.50;;;;;;;10.97;65.16;100419.23;106542;1270;25374;-61
2023/05/06 03:36:24;;;;;;;16.30;2.90;;;;;;;10.98;65.19;100420.31;110366;1269;22662;-63
2023/05/06 03:38:54;;;;;;;11.80;2.50;;;;;;;10.97;65.23;100427.67;109640;1272;22973;-62
2023/05/06 03:41:26;;;;;;;11.40;2.00;;;;;;;10.97;65.43;100429.69;106609;1276;25426;-63
2023/05/06 03:43:57;;;;;;;10.60;2.40;;;;;;;10.95;65.32;100434.48;110394;1268;22231;-62
2023/05/06 03:46:27;;;;;;;8.30;2.60;;;;;;;10.94;65.33;100443.25;110418;1260;22233;-63
2023/05/06 03:48:59;;;;;;;12.40;3.00;;;;;;;10.93;65.33;100447.03;110416;1265;22165;-63
2023/05/06 03:51:30;;;;;;;8.40;2.30;;;;;;;10.94;65.38;100447.81;110462;1270;22159;-63
2023/05/06 03:54:01;;;;;;;14.40;2.80;;;;;;;10.95;65.49;100450.63;110408;1270;22297;-63
2023/05/06 03:56:32;;;;;;;11.50;2.80;;;;;;;10.94;65.46;100449.24;110387;1261;22588;-63
2023/05/06 03:59:03;;;;;;;9.80;2.60;;;;;;;10.95;65.43;100447.08;110420;1268;22193;-62
2023/05/06 04:01:34;;;;;;;12.50;2.40;;;;;;;10.97;65.59;100452.69;110400;1272;23162;-63
2023/05/06 04:04:05;;;;;;;13.10;2.80;;;;;;;10.99;65.83;100455.53;110429;1276;22194;-62
2023/05/06 04:06:36;;;;;;;11.60;2.80;;;;;;;11.01;65.71;100447.60;110419;1264;22386;-63
2023/05/06 04:09:07;;;;;;;11.10;2.80;;;;;;;11.02;65.78;100442.02;110402;1272;22209;-62
2023/05/06 04:11:38;;;;;;;9.80;2.70;;;;;;;11.02;65.84;100447.41;110366;1270;23120;-62
2023/05/06 04:14:09;;;;;;;14.70;2.90;;;;;;;11.02;65.89;100447.87;110424;1260;22440;-62
2023/05/06 04:16:39;;;;;;;10.70;3.00;;;;;;;11.01;66.01;100442.73;110402;1268;22328;-62
2023/05/06 04:19:11;;;;;;;7.70;2.00;;;;;;;11.02;66.22;100437.88;110409;1269;22969;-63
2023/05/06 04:21:47;;;;;;;8.80;2.40;;;;;;;11.02;66.42;100430.39;110422;1260;22333;-71
2023/05/06 04:24:18;;;;;;;10.20;2.10;;;;;;;11.00;66.51;100422.04;110315;1268;22270;-56
2023/05/06 04:26:49;;;;;;;10.20;2.30;;;;;;;10.94;66.94;100419.93;110371;1260;22251;-54
2023/05/06 04:29:20;;;;;;;11.00;2.50;;;;;;;10.88;66.91;100411.79;110286;1264;22348;-55
2023/05/06 04:31:52;;;;;;;11.10;2.50;;;;;;;10.85;67.05;100408.77;110354;1261;23190;-57
2023/05/06 04:34:26;;;;;;;8.50;2.20;;;;;;;10.81;67.25;100409.11;110351;1268;22162;-56
2023/05/06 04:36:57;;;;;;;9.00;2.60;;;;;;;10.80;67.47;100395.48;110418;1269;22167;-56
2023/05/06 04:39:28;;;;;;;8.90;1.70;;;;;;;10.78;67.49;100393.34;110387;1264;22363;-56
2023/05/06 04:41:58;;;;;;;6.50;1.90;;;;;;;10.74;67.73;100384.79;110294;1261;23079;-56
2023/05/06 04:44:29;;;;;;;10.00;2.30;;;;;;;10.69;67.70;100367.29;110355;1264;22369;-57
2023/05/06 04:47:00;;;;;;;12.70;2.80;;;;;;;10.68;67.84;100360.80;110424;1268;22199;-55
2023/05/06 04:49:31;;;;;;;14.70;2.50;;;;;;;10.65;68.06;100351.56;110319;1267;22364;-56
2023/05/06 06:25:40;;;;;;;10.90;3.30;;;;;;;10.12;70.53;100374.69;103379;1304;545029;-60
2023/05/06 06:28:11;;;;;;;12.50;3.10;;;;;;;10.09;70.67;100375.08;106477;1284;25426;-58
2023/05/06 06:30:42;;;;;;;15.00;3.90;;;;;;;10.08;70.81;100377.29;106388;1276;22640;-62
2023/05/06 06:33:13;;;;;;;13.50;3.30;;;;;;;10.10;70.83;100380.07;106323;1279;22576;-60
2023/05/06 06:35:43;;;;;;;15.10;3.10;;;;;;;10.13;70.72;100385.75;107084;1270;22530;-61
2023/05/06 06:38:14;;;;;;;13.70;2.90;;;;;;;10.16;70.76;100385.25;103114;1274;5432258;-59
2023/05/06 06:40:45;;;;;;;15.20;2.50;;;;;;;10.20;70.77;100391.13;107336;1264;22591;-59
2023/05/06 06:43:18;;;;;;;11.10;3.30;;;;;;;10.22;70.89;100389.34;107220;1264;23916;-60
2023/05/06 06:45:50;;;;;;;9.70;2.70;;;;;;;10.25;71.12;100390.23;110791;1250;22172;-61
2023/05/06 06:48:21;;;;;;;10.80;2.40;;;;;;;10.27;71.43;100392.46;108616;1266;22517;-59
2023/05/06 06:50:52;;;;;;;12.30;3.20;;;;;;;10.29;71.25;100389.16;107153;1256;24177;-60
2023/05/06 06:53:23;;;;;;;11.00;2.60;;;;;;;10.32;71.34;100388.87;107235;1257;22667;-60
2023/05/06 06:56:03;;;;;;;12.40;3.80;;;;;;;10.32;71.52;100389.65;107268;1271;24120;-60
2023/05/06 06:58:35;;;;;;;16.50;3.10;;;;;;;10.33;71.58;100393.61;110728;1271;22358;-61
2023/05/06 07:01:07;;;;;;;13.80;3.00;;;;;;;10.32;72.01;100392.84;110748;1259;22199;-60
2023/05/06 07:03:38;;;;;;;15.10;3.70;;;;;;;10.33;71.77;100392.17;109974;1264;25947;-61
2023/05/06 07:06:09;;;;;;;12.80;2.80;;;;;;;10.35;71.98;100385.60;107261;1257;22547;-59
2023/05/06 07:08:40;;;;;;;10.70;3.20;;;;;;;10.40;71.93;100382.58;107329;1271;22612;-60
2023/05/06 07:11:13;;;;;;;14.30;2.80;;;;;;;10.41;72.05;100378.58;107369;1269;22578;-59
2023/05/06 07:13:44;;;;;;;13.50;3.50;;;;;;;10.42;72.28;100374.58;107312;1264;22578;-60
2023/05/06 07:16:15;;;;;;;11.40;2.40;;;;;;;10.43;72.29;100372.52;107407;1251;24270;-62
2023/05/06 07:18:46;;;;;;;10.40;3.40;;;;;;;10.46;72.39;100376.34;107357;1266;22686;-59
2023/05/06 07:21:17;;;;;;;15.40;3.40;;;;;;;10.47;72.77;100374.95;107429;1271;23898;-60
2023/05/06 07:23:49;;;;;;;12.30;3.30;;;;;;;10.45;72.68;100375.36;109321;1266;25467;-58
2023/05/06 07:26:21;;;;;;;12.30;3.50;;;;;;;10.44;73.07;100374.71;107376;1264;23097;-58
2023/05/06 07:28:52;;;;;;;16.40;3.50;;;;;;;10.42;73.06;100376.45;108003;1271;22518;-59
2023/05/06 07:31:22;;;;;;;14.70;3.90;;;;;;;10.41;73.55;100372.17;107302;1272;22523;-55
2023/05/06 07:33:53;;;;;;;17.00;5.00;;;;;;;10.38;74.05;100364.14;107194;1266;23429;-57
2023/05/06 07:36:25;;;;;;;17.30;4.90;;;;;;;10.37;74.08;100363.35;107232;1260;25586;-62
2023/05/06 07:38:56;;;;;;;11.00;3.70;;;;;;;10.34;74.69;100350.26;110516;1272;22515;-59
2023/05/06 07:41:27;;;;;;;10.40;3.10;;;;;;;10.32;74.92;100351.17;106995;1272;22569;-58
2023/05/06 07:43:59;;;;;;;16.40;4.10;;;;;;;10.29;74.93;100351.96;107210;1266;24215;-59
2023/05/06 07:46:30;;;;;;;14.60;3.80;;;;;;;10.27;75.23;100360.80;110745;1272;22291;-60
2023/05/06 07:49:01;;;;;;;13.10;3.30;;;;;;;10.25;75.20;100359.73;107652;1253;22567;-59
2023/05/06 07:51:32;;;;;;;17.10;3.80;;;;;;;10.25;75.52;100354.20;107134;1264;22734;-60
2023/05/06 07:54:03;;;;;;;11.80;3.10;;;;;;;10.20;76.39;100346.30;107021;1269;23988;-58
2023/05/06 07:56:34;;;;;;;13.20;4.00;;;;;;;10.14;76.42;100341.35;107111;1269;22513;-58
2023/05/06 07:59:05;;;;;;;13.70;3.80;;;;;;;10.10;76.86;100334.78;107113;1250;25586;-58
2023/05/06 08:01:36;;;;;;;10.50;3.70;;;;;;;10.04;77.14;100326.84;107180;1266;22524;-60
2023/05/06 08:04:08;;;;;;;16.60;4.80;;;;;;;10.04;76.98;100327.27;107319;1272;22531;-58
2023/05/06 08:06:39;;;;;;;15.80;4.00;;;;;;;10.03;77.31;100328.68;107073;1272;24233;-57
2023/05/06 08:09:11;;;;;;;16.00;4.70;;;;;;;10.00;77.61;100325.48;107320;1269;22581;-58
2023/05/06 08:11:42;;;;;;;16.20;4.70;;;;;;;10.01;77.69;100317.38;109501;1266;23905;-57
2023/05/06 08:14:13;;;;;;;18.70;5.00;;;;;;;10.01;77.66;100317.53;110717;1268;22224;-58
2023/05/06 08:16:44;;;;;;;23.40;8.10;;;;;;;10.00;78.14;100317.81;107912;1266;22663;-59
2023/05/06 08:19:16;;;;;;;17.90;5.20;;;;;;;9.99;78.28;100309.58;107340;1272;22750;-56
2023/05/06 08:21:46;;;;;;;17.20;5.00;;;;;;;9.98;78.96;100301.50;107178;1272;26608;-57
2023/05/06 08:24:18;;;;;;;14.10;4.70;;;;;;;9.93;79.17;100286.46;107168;1272;22462;-55
2023/05/06 08:26:48;;;;;;;16.00;4.10;;;;;;;9.90;79.10;100283.01;107049;1266;22516;-58
2023/05/06 08:29:20;;;;;;;12.30;3.70;;;;;;;9.87;79.50;100283.86;107056;1269;22564;-57
2023/05/06 08:31:51;;;;;;;15.60;5.50;;;;;;;9.85;79.94;100291.66;107140;1266;22784;-59
2023/05/06 08:34:22;;;;;;;16.20;5.60;;;;;;;9.83;79.83;100302.82;110189;1272;22595;-57
2023/05/06 08:36:53;;;;;;;20.50;8.10;;;;;;;9.82;79.86;100312.67;107401;1265;22736;-58
2023/05/06 08:39:24;;;;;;;15.70;5.60;;;;;;;9.83;80.13;100342.31;109933;1266;26529;-54
2023/05/06 08:41:56;;;;;;;17.90;4.90;;;;;;;9.81;80.43;100370.71;107321;1272;24215;-57
2023/05/06 08:44:28;;;;;;;13.90;4.30;;;;;;;9.77;80.42;100387.14;108486;1269;24225;-58
2023/05/06 08:46:59;;;;;;;15.40;4.70;;;;;;;9.76;80.57;100393.12;110456;1256;25885;-59
2023/05/06 08:49:30;;;;;;;18.10;6.40;;;;;;;9.78;80.90;100381.96;107155;1272;22511;-58
2023/05/06 08:52:05;;;;;;;18.10;5.50;;;;;;;9.82;81.29;100380.83;107203;1272;24238;-60
2023/05/06 08:54:37;;;;;;;16.60;6.20;;;;;;;9.83;81.44;100384.29;110783;1265;22196;-59
2023/05/06 08:57:12;;;;;;;20.80;6.60;;;;;;;9.87;81.61;100396.25;107294;1271;22530;-58
2023/05/06 08:59:44;;;;;;;20.70;7.00;;;;;;;9.88;81.61;100400.29;109369;1266;22665;-62
2023/05/06 09:02:15;;;;;;;15.90;4.70;;;;;;;9.91;81.46;100393.26;107112;1266;24298;-61
2023/05/06 09:04:47;;;;;;;19.90;5.40;;;;;;;9.93;81.54;100384.53;107119;1267;22505;-61
2023/05/06 09:07:18;;;;;;;19.90;6.30;;;;;;;9.97;81.82;100381.95;107129;1270;22486;-62
2023/05/06 09:09:49;;;;;;;14.80;5.50;;;;;;;10.01;81.99;100380.98;107082;1266;23677;-62
2023/05/06 09:12:20;;;;;;;12.50;4.60;;;;;;;10.04;81.72;100380.89;106956;1256;24234;-60
2023/05/06 09:14:54;;;;;;;22.80;9.30;;;;;;;10.07;82.16;100376.66;106968;1250;24356;-62
2023/05/06 09:17:26;;;;;;;20.80;7.90;;;;;;;10.10;82.42;100370.58;107221;1272;25892;-60
2023/05/06 09:19:58;;;;;;;22.00;6.90;;;;;;;10.12;82.52;100370.15;107156;1265;22526;-59
2023/05/06 09:22:30;;;;;;;22.00;8.00;;;;;;;10.15;82.82;100367.86;107274;1267;25605;-57
2023/05/06 09:25:02;;;;;;;20.50;7.20;;;;;;;10.20;83.47;100362.61;107360;1272;24315;-58
2023/05/06 09:27:36;;;;;;;22.70;8.90;;;;;;;10.22;83.10;100351.63;109833;1250;24610;-58
2023/05/06 09:30:10;;;;;;;24.30;8.00;;;;;;;10.27;83.45;100352.18;110770;1261;22157;-60
2023/05/06 09:32:41;;;;;;;17.10;6.90;;;;;;;10.32;83.41;100348.91;108085;1257;22954;-59
2023/05/06 09:35:13;;;;;;;30.90;11.20;;;;;;;10.38;84.39;100344.40;110198;1266;22634;-59
2023/05/06 09:37:44;;;;;;;26.00;12.30;;;;;;;10.43;84.45;100343.55;107380;1272;25569;-57
2023/05/06 09:40:16;;;;;;;38.90;13.00;;;;;;;10.49;84.58;100345.59;107391;1272;22535;-55
2023/05/06 09:42:49;;;;;;;66.40;23.60;;;;;;;10.53;84.60;100346.08;110618;1266;22646;-60
2023/05/06 09:45:23;;;;;;;35.40;14.10;;;;;;;10.60;85.01;100352.41;107262;1269;22529;-59
2023/05/06 09:47:55;;;;;;;59.10;22.40;;;;;;;10.68;85.21;100351.47;109085;1269;22546;-58
2023/05/06 09:50:26;;;;;;;55.40;17.70;;;;;;;10.72;85.67;100357.95;107161;1272;26002;-56
2023/05/06 09:53:02;;;;;;;33.90;11.10;;;;;;;10.76;85.88;100366.39;107344;1257;22475;-59
2023/05/06 09:55:34;;;;;;;75.90;29.30;;;;;;;10.76;85.06;100367.98;109552;1272;22634;-58
2023/05/06 09:58:08;;;;;;;58.50;21.70;;;;;;;10.79;85.52;100369.25;107257;1272;25035;-58
2023/05/06 10:00:39;;;;;;;39.90;15.00;;;;;;;10.80;85.55;100367.65;107390;1265;25572;-59
2023/05/06 10:03:11;;;;;;;23.80;7.20;;;;;;;10.84;85.83;100370.11;107382;1264;23586;-60
2023/05/06 10:05:43;;;;;;;27.40;11.00;;;;;;;10.85;85.72;100366.02;107403;1256;22728;-59
2023/05/06 10:08:17;;;;;;;24.60;11.10;;;;;;;10.85;85.50;100361.35;108566;1269;22518;-60
2023/05/06 10:10:51;;;;;;;15.10;6.50;;;;;;;10.87;86.18;100365.16;110704;1264;22466;-59
2023/05/06 10:13:24;;;;;;;19.10;7.50;;;;;;;10.89;85.92;100364.92;107680;1272;26524;-60
2023/05/06 10:15:56;;;;;;;20.10;6.60;;;;;;;10.90;85.98;100357.27;109089;1266;24219;-61
2023/05/06 10:18:29;;;;;;;15.20;5.60;;;;;;;10.93;86.21;100357.54;107218;1269;25606;-61
2023/05/06 10:21:03;;;;;;;17.90;6.40;;;;;;;10.94;86.00;100358.83;107510;1256;22566;-59
2023/05/06 10:23:42;;;;;;;20.90;7.20;;;;;;;10.95;85.93;100356.67;109517;1265;24394;-61
2023/05/06 10:26:16;;;;;;;18.70;6.70;;;;;;;10.94;86.42;100360.56;107298;1266;26746;-62
2023/05/06 10:28:51;;;;;;;24.00;9.50;;;;;;;10.92;85.96;100356.83;107324;1272;22970;-60
2023/05/06 10:31:26;;;;;;;22.10;8.50;;;;;;;10.92;85.70;100356.61;109871;1272;22761;-59
2023/05/06 10:34:01;;;;;;;18.20;6.60;;;;;;;10.92;86.13;100350.88;108160;1265;24258;-60
2023/05/06 10:36:36;;;;;;;13.50;5.20;;;;;;;10.91;85.80;100344.77;108052;1269;22525;-61
2023/05/06 10:39:11;;;;;;;19.50;5.60;;;;;;;10.93;85.90;100343.94;109902;1266;25622;-58
2023/05/06 10:41:44;;;;;;;13.50;5.20;;;;;;;10.93;86.12;100342.25;107309;1256;24532;-59
2023/05/06 10:44:15;;;;;;;27.70;10.10;;;;;;;10.93;85.83;100341.08;108421;1265;24302;-59
2023/05/06 10:47:04;;;;;;;38.00;14.40;;;;;;;10.93;85.79;100344.02;107288;1272;22760;-60
2023/05/06 10:49:35;;;;;;;68.80;28.80;;;;;;;10.93;86.29;100343.52;107287;1267;23013;-59
2023/05/06 10:52:17;;;;;;;109.00;47.20;;;;;;;10.92;86.10;100342.70;107355;1272;24170;-58
2023/05/06 10:54:51;;;;;;;196.80;93.60;;;;;;;10.96;86.18;100350.59;110583;1266;22729;-60
2023/05/06 10:57:25;;;;;;;212.30;101.90;;;;;;;10.98;86.31;100346.57;107514;1268;22763;-58
2023/05/06 10:59:56;;;;;;;163.00;80.80;;;;;;;10.99;86.51;100339.85;107517;1269;25458;-58
2023/05/06 11:02:30;;;;;;;140.00;74.80;;;;;;;11.00;86.28;100346.39;107468;1250;24250;-60
2023/05/06 11:05:04;;;;;;;82.30;40.90;;;;;;;10.99;86.47;100351.27;107450;1257;22512;-59
2023/05/06 11:07:35;;;;;;;71.40;36.20;;;;;;;10.95;86.47;100354.23;109499;1266;26637;-59
2023/05/06 11:10:10;;;;;;;40.70;21.40;;;;;;;10.94;86.97;100360.10;107453;1272;22524;-60
2023/05/06 11:12:51;;;;;;;30.50;16.30;;;;;;;10.92;86.52;100361.39;108239;1256;22566;-63
2023/05/06 11:15:26;;;;;;;45.00;23.70;;;;;;;10.92;87.06;100357.23;109892;1256;22532;-60
2023/05/06 11:17:58;;;;;;;35.80;13.70;;;;;;;10.95;87.13;100354.14;107422;1256;25281;-59
2023/05/06 11:20:29;;;;;;;100.90;33.40;;;;;;;10.94;87.21;100353.71;107286;1256;22532;-60
2023/05/06 11:23:00;;;;;;;171.70;59.80;;;;;;;10.96;87.15;100357.60;110342;1265;23613;-60
2023/05/06 11:25:45;;;;;;;218.30;83.50;;;;;;;10.98;87.04;100359.73;107189;1272;22551;-61
2023/05/06 11:28:17;;;;;;;122.20;41.60;;;;;;;10.99;86.85;100361.25;107215;1272;23013;-62
2023/05/06 11:30:57;;;;;;;114.60;42.90;;;;;;;11.00;86.72;100362.35;107174;1268;22524;-60
2023/05/06 11:33:31;;;;;;;70.20;25.90;;;;;;;11.04;86.77;100364.12;107152;1272;24839;-61
2023/05/06 11:36:03;;;;;;;40.40;14.80;;;;;;;11.08;87.48;100366.46;107171;1257;24219;-61
2023/05/06 11:38:44;;;;;;;65.60;25.90;;;;;;;11.11;86.97;100369.80;110737;1266;22880;-62
2023/05/06 11:41:16;;;;;;;46.40;20.60;;;;;;;11.14;87.27;100368.45;107232;1266;25411;-60
2023/05/06 11:43:50;;;;;;;55.20;25.90;;;;;;;11.15;87.74;100363.25;109039;1272;25329;-62
2023/05/06 11:46:22;;;;;;;41.30;20.40;;;;;;;11.18;87.23;100359.75;110759;1272;22936;-62
2023/05/06 11:48:53;;;;;;;25.50;11.60;;;;;;;11.23;86.94;100354.15;107610;1266;22513;-61
2023/05/06 11:51:25;;;;;;;23.30;9.70;;;;;;;11.29;87.49;100353.24;107174;1266;24184;-62
2023/05/06 11:54:06;;;;;;;22.40;9.10;;;;;;;11.34;87.42;100359.22;110700;1265;22153;-61
2023/05/06 11:56:47;;;;;;;19.00;7.20;;;;;;;11.38;87.25;100364.58;107906;1269;22640;-60
2023/05/06 11:59:28;;;;;;;22.30;8.70;;;;;;;11.39;87.09;100366.84;110344;1266;25332;-62
2023/05/06 12:02:01;;;;;;;21.20;7.80;;;;;;;11.45;87.68;100371.36;107097;1266;22514;-62
2023/05/06 12:04:41;;;;;;;17.80;6.50;;;;;;;11.47;87.80;100377.59;108023;1272;24758;-61
2023/05/06 12:07:14;;;;;;;19.00;6.00;;;;;;;11.49;88.20;100383.11;110069;1269;26610;-60
2023/05/06 12:09:46;;;;;;;25.80;9.60;;;;;;;11.48;88.04;100383.21;106999;1257;22504;-61
2023/05/06 12:12:21;;;;;;;16.60;7.60;;;;;;;11.50;87.81;100383.75;106944;1272;25070;-59
2023/05/06 12:14:53;;;;;;;21.90;8.80;;;;;;;11.54;88.70;100380.20;110477;1266;22527;-60
2023/05/06 12:17:25;;;;;;;20.80;8.50;;;;;;;11.57;89.25;100379.45;106906;1272;23610;-60
2023/05/06 12:19:56;;;;;;;20.20;8.60;;;;;;;11.63;89.62;100385.70;106875;1266;25342;-61
2023/05/06 12:22:27;;;;;;;22.40;8.70;;;;;;;11.68;88.44;100381.44;106719;1272;22527;-61
2023/05/06 12:24:58;;;;;;;19.40;8.10;;;;;;;11.76;89.31;100387.01;106765;1266;22738;-60
2023/05/06 12:27:38;;;;;;;17.00;6.80;;;;;;;11.80;89.31;100390.75;109423;1267;24349;-61
2023/05/06 12:30:11;;;;;;;18.50;9.30;;;;;;;11.84;89.36;100388.22;106719;1272;23277;-59
2023/05/06 12:32:58;;;;;;;34.50;27.40;;;;;;;11.86;89.25;100386.39;107708;1269;22626;-60
2023/05/06 12:35:31;;;;;;;24.00;15.80;;;;;;;11.90;89.02;100379.21;106848;1257;25300;-61
2023/05/06 12:38:11;;;;;;;24.80;13.90;;;;;;;11.92;89.36;100380.21;110032;1266;22641;-60
2023/05/06 12:40:44;;;;;;;21.40;9.80;;;;;;;11.94;89.19;100386.53;107340;1272;22586;-61
2023/05/06 12:43:15;;;;;;;21.80;12.20;;;;;;;11.93;89.21;100389.42;106798;1271;22570;-60
2023/05/06 12:46:11;;;;;;;22.00;11.50;;;;;;;11.94;89.02;100384.66;106700;1272;26611;-60
2023/05/06 12:48:55;;;;;;;71.30;36.80;;;;;;;11.94;88.32;100392.25;107383;1266;22565;-60
2023/05/06 12:51:27;;;;;;;54.10;29.30;;;;;;;11.96;88.40;100389.88;106752;1272;25562;-60
2023/05/06 12:53:58;;;;;;;28.80;14.10;;;;;;;11.96;88.37;100389.98;106783;1272;22515;-60
2023/05/06 12:56:29;;;;;;;28.60;11.90;;;;;;;11.93;88.20;100391.11;106804;1262;22566;-61
2023/05/06 12:59:04;;;;;;;22.20;10.30;;;;;;;11.93;88.53;100388.77;106706;1272;22528;-63
2023/05/06 13:01:34;;;;;;;23.10;9.30;;;;;;;11.94;89.02;100382.21;106758;1264;22573;-62
2023/05/06 13:04:07;;;;;;;26.30;10.50;;;;;;;11.96;88.45;100385.05;106670;1256;22507;-60
2023/05/06 13:06:39;;;;;;;24.20;11.30;;;;;;;11.98;88.74;100383.25;106771;1265;22808;-60